createdAt,value
2022-09-03T00:00:13.462Z,100552.16
2022-09-03T00:03:23.222Z,100556.50
2022-09-03T00:06:39.631Z,100558.81
2022-09-03T00:09:36.920Z,100561.16
2022-09-03T00:12:32.788Z,100571.91
2022-09-03T00:15:24.895Z,100561.47
2022-09-03T00:18:23.964Z,100573.66
2022-09-03T00:21:20.784Z,100573.84
2022-09-03T00:24:14.341Z,100579.22
2022-09-03T00:27:09.875Z,100583.03
2022-09-03T00:30:04.816Z,100590.94
2022-09-03T00:33:08.350Z,100576.13
2022-09-03T00:36:08.636Z,100579.09
2022-09-03T00:39:00.562Z,100570.84
2022-09-03T00:42:20.418Z,100585.59
2022-09-03T00:45:17.779Z,100590.13
2022-09-03T00:48:27.910Z,100598.47
2022-09-03T00:51:42.564Z,100596.75
2022-09-03T00:54:46.091Z,100597.41
2022-09-03T00:57:58.333Z,100593.25
2022-09-03T01:00:48.873Z,100582.94
2022-09-03T01:03:57.009Z,100580.91
2022-09-03T01:07:01.742Z,100577.69
2022-09-03T01:10:09.604Z,100571.09
2022-09-03T01:13:12.974Z,100563.31
2022-09-03T01:16:05.516Z,100570.19
2022-09-03T01:19:18.026Z,100562.22
2022-09-03T01:22:32.327Z,100550.25
2022-09-03T01:25:29.522Z,100551.06
2022-09-03T01:28:34.209Z,100558.69
2022-09-03T01:31:45.163Z,100559.38
2022-09-03T01:34:38.387Z,100557.63
2022-09-03T01:37:40.577Z,100565.63
2022-09-03T01:40:40.565Z,100569.53
2022-09-03T01:43:53.204Z,100574.16
2022-09-03T01:46:47.215Z,100581.22
2022-09-03T01:49:38.149Z,100571.38
2022-09-03T01:52:41.969Z,100578.44
2022-09-03T01:55:36.089Z,100586.44
2022-09-03T01:58:29.155Z,100592.63
2022-09-03T02:01:30.909Z,100585.56
2022-09-03T02:04:26.222Z,100585.06
2022-09-03T02:07:16.558Z,100587.06
2022-09-03T02:10:15.297Z,100590.59
2022-09-03T02:13:28.766Z,100587.75
2022-09-03T02:16:25.709Z,100584.38
2022-09-03T02:19:18.281Z,100581.13
2022-09-03T02:22:08.926Z,100573.44
2022-09-03T02:24:58.646Z,100570.19
2022-09-03T02:27:49.317Z,100560.81
2022-09-03T02:30:39.370Z,100569.88
2022-09-03T02:33:29.755Z,100568.59
2022-09-03T02:36:24.224Z,100563.50
2022-09-03T02:39:16.015Z,100563.50
2022-09-03T02:42:06.454Z,100554.19
2022-09-03T02:45:01.930Z,100543.09
2022-09-03T02:47:55.432Z,100550.03
2022-09-03T02:50:44.976Z,100569.03
2022-09-03T02:53:35.174Z,100564.88
2022-09-03T02:56:29.381Z,100570.00
2022-09-03T02:59:20.044Z,100572.78
2022-09-03T03:02:10.392Z,100550.94
2022-09-03T03:05:00.467Z,100586.72
2022-09-03T03:07:50.673Z,100609.25
2022-09-03T03:10:40.617Z,100623.00
2022-09-03T03:13:32.135Z,100655.25
2022-09-03T03:16:22.911Z,100677.41
2022-09-03T03:19:13.002Z,100613.31
2022-09-03T03:22:02.578Z,100609.72
2022-09-03T03:24:56.767Z,100606.78
2022-09-03T03:27:50.327Z,100607.63
2022-09-03T03:30:41.858Z,100612.91
2022-09-03T03:33:32.212Z,100623.38
2022-09-03T03:36:22.196Z,100627.78
2022-09-03T03:39:14.236Z,100621.03
2022-09-03T03:42:03.703Z,100609.94
2022-09-03T03:44:53.489Z,100613.50
2022-09-03T03:47:44.084Z,100630.13
2022-09-03T03:50:34.461Z,100636.06
2022-09-03T03:53:25.156Z,100630.03
2022-09-03T03:56:16.543Z,100633.91
2022-09-03T03:59:06.668Z,100631.91
2022-09-03T04:01:58.166Z,100624.88
2022-09-03T04:04:48.034Z,100642.00
2022-09-03T04:07:38.967Z,100642.66
2022-09-03T04:10:29.159Z,100644.34
2022-09-03T04:13:20.481Z,100638.16
2022-09-03T04:16:22.004Z,100652.25
2022-09-03T04:19:12.074Z,100640.00
2022-09-03T04:22:02.763Z,100635.78
2022-09-03T04:24:52.752Z,100638.63
2022-09-03T04:27:42.481Z,100641.66
2022-09-03T04:30:32.620Z,100622.19
2022-09-03T04:33:26.907Z,100605.75
2022-09-03T04:36:25.506Z,100607.25
2022-09-03T04:39:17.232Z,100599.88
2022-09-03T04:42:06.988Z,100585.09
2022-09-03T04:44:57.138Z,100592.31
2022-09-03T04:47:57.665Z,100602.22
2022-09-03T04:50:47.738Z,100599.69
2022-09-03T04:53:43.107Z,100602.56
2022-09-03T04:56:37.188Z,100599.69
2022-09-03T04:59:27.375Z,100600.38
2022-09-03T05:02:17.691Z,100601.72
2022-09-03T05:05:08.225Z,100599.03
2022-09-03T05:08:00.625Z,100595.31
2022-09-03T05:11:02.515Z,100595.66
2022-09-03T05:13:53.405Z,100579.22
2022-09-03T05:16:43.949Z,100586.59
2022-09-03T05:19:42.968Z,100571.81
2022-09-03T05:22:34.352Z,100563.94
2022-09-03T05:25:25.499Z,100555.69
2022-09-03T05:28:15.583Z,100542.94
2022-09-03T05:31:07.215Z,100534.22
2022-09-03T05:34:01.787Z,100525.16
2022-09-03T05:36:52.296Z,100515.06
2022-09-03T05:39:42.539Z,100515.72
2022-09-03T05:42:36.584Z,100516.75
2022-09-03T05:45:26.868Z,100507.00
2022-09-03T05:48:16.448Z,100511.69
2022-09-03T05:51:17.771Z,100497.44
2022-09-03T05:54:10.136Z,100506.31
2022-09-03T05:57:02.576Z,100505.59
2022-09-03T05:59:53.708Z,100499.75
2022-09-03T06:02:44.794Z,100502.75
2022-09-03T06:05:35.308Z,100510.28
2022-09-03T06:08:25.910Z,100517.34
2022-09-03T06:11:16.139Z,100522.59
2022-09-03T06:14:09.460Z,100528.75
2022-09-03T06:16:59.411Z,100527.38
2022-09-03T06:19:49.363Z,100521.00
2022-09-03T06:22:39.331Z,100524.50
2022-09-03T06:25:29.143Z,100520.94
2022-09-03T06:28:23.242Z,100515.56
2022-09-03T06:31:17.216Z,100508.53
2022-09-03T06:34:07.541Z,100487.03
2022-09-03T06:37:00.896Z,100480.63
2022-09-03T06:39:52.766Z,100479.75
2022-09-03T06:42:45.827Z,100473.22
2022-09-03T06:45:35.866Z,100468.97
2022-09-03T06:48:25.913Z,100470.94
2022-09-03T06:51:23.213Z,100460.38
2022-09-03T06:54:14.797Z,100460.19
2022-09-03T06:57:05.734Z,100454.28
2022-09-03T06:59:56.835Z,100448.19
2022-09-03T07:02:46.614Z,100445.28
2022-09-03T07:05:36.689Z,100444.56
2022-09-03T07:08:26.094Z,100442.38
2022-09-03T07:11:20.861Z,100446.38
2022-09-03T07:14:10.728Z,100449.06
2022-09-03T07:17:00.714Z,100446.66
2022-09-03T07:19:50.666Z,100444.22
2022-09-03T07:22:40.347Z,100440.53
2022-09-03T07:25:32.312Z,100449.44
2022-09-03T07:28:24.145Z,100455.16
2022-09-03T07:31:17.086Z,100443.81
2022-09-03T07:34:10.164Z,100449.19
2022-09-03T07:37:00.545Z,100452.25
2022-09-03T07:39:51.963Z,100451.66
2022-09-03T07:42:42.446Z,100456.81
2022-09-03T07:45:33.161Z,100457.84
2022-09-03T07:48:22.903Z,100463.72
2022-09-03T07:51:12.796Z,100462.84
2022-09-03T07:54:06.697Z,100454.63
2022-09-03T07:56:56.889Z,100490.78
2022-09-03T07:59:47.336Z,100501.25
2022-09-03T08:02:37.759Z,100509.03
2022-09-03T08:05:27.987Z,100523.38
2022-09-03T08:08:19.397Z,100547.66
2022-09-03T08:11:14.665Z,100564.88
2022-09-03T08:14:07.729Z,100558.88
2022-09-03T08:16:57.472Z,100565.81
2022-09-03T08:19:48.279Z,100572.25
2022-09-03T08:22:39.725Z,100564.59
2022-09-03T08:25:30.301Z,100548.47
2022-09-03T08:28:20.241Z,100554.53
2022-09-03T08:31:15.097Z,100563.59
2022-09-03T08:34:07.927Z,100560.59
2022-09-03T08:36:57.952Z,100577.88
2022-09-03T08:39:48.356Z,100579.44
2022-09-03T08:43:11.098Z,100580.75
2022-09-03T08:46:01.927Z,100588.88
2022-09-03T08:48:55.435Z,100585.50
2022-09-03T08:51:49.414Z,100590.22
2022-09-03T08:54:39.823Z,100579.50
2022-09-03T08:57:33.904Z,100587.88
2022-09-03T09:00:23.500Z,100593.25
2022-09-03T09:03:32.319Z,100601.97
2022-09-03T09:06:48.908Z,100608.00
2022-09-03T09:09:44.675Z,100623.47
2022-09-03T09:12:46.643Z,100633.22
2022-09-03T09:15:36.971Z,100636.25
2022-09-03T09:18:49.634Z,100633.22
2022-09-03T09:21:47.485Z,100633.22
2022-09-03T09:24:47.413Z,100627.06
2022-09-03T09:27:37.238Z,100629.22
2022-09-03T09:30:27.998Z,100632.91
2022-09-03T09:33:19.984Z,100633.91
2022-09-03T09:36:16.892Z,100650.00
2022-09-03T09:39:17.277Z,100653.38
2022-09-03T09:42:13.332Z,100664.81
2022-09-03T09:45:12.528Z,100672.50
2022-09-03T09:48:02.755Z,100678.56
2022-09-03T09:50:52.360Z,100678.75
2022-09-03T09:53:43.192Z,100676.22
2022-09-03T09:56:33.709Z,100675.38
2022-09-03T09:59:23.338Z,100685.28
2022-09-03T10:02:22.194Z,100681.25
2022-09-03T10:05:35.083Z,100681.91
2022-09-03T10:08:26.853Z,100686.81
2022-09-03T10:11:18.822Z,100683.09
2022-09-03T10:14:51.057Z,100683.78
2022-09-03T10:17:49.550Z,100693.19
2022-09-03T10:20:39.441Z,100689.97
2022-09-03T10:23:30.671Z,100691.50
2022-09-03T10:26:23.799Z,100698.22
2022-09-03T10:29:17.584Z,100686.47
2022-09-03T10:32:41.917Z,100679.56
2022-09-03T10:35:39.643Z,100675.72
2022-09-03T10:38:35.975Z,100678.91
2022-09-03T10:41:31.859Z,100656.25
2022-09-03T10:44:43.593Z,100656.06
2022-09-03T10:48:11.898Z,100649.34
2022-09-03T10:51:07.841Z,100648.34
2022-09-03T10:54:30.404Z,100650.38
2022-09-03T10:57:39.120Z,100649.56
2022-09-03T11:00:32.190Z,100650.03
2022-09-03T11:03:34.334Z,100645.34
2022-09-03T11:06:29.669Z,100644.69
2022-09-03T11:09:23.346Z,100646.69
2022-09-03T11:12:22.848Z,100649.03
2022-09-03T11:15:20.488Z,100641.66
2022-09-03T11:18:22.850Z,100638.28
2022-09-03T11:21:16.258Z,100639.16
2022-09-03T11:24:26.142Z,100644.34
2022-09-03T11:27:19.000Z,100645.69
2022-09-03T11:30:15.672Z,100651.72
2022-09-03T11:33:11.024Z,100660.78
2022-09-03T11:36:03.212Z,100660.13
2022-09-03T11:38:53.043Z,100668.50
2022-09-03T11:41:42.839Z,100675.22
2022-09-03T11:44:51.354Z,100675.91
2022-09-03T11:47:46.629Z,100685.31
2022-09-03T11:53:37.464Z,100692.34
2022-09-03T11:56:27.415Z,100694.03
2022-09-03T11:59:25.937Z,100698.06
2022-09-03T12:02:28.862Z,100710.47
2022-09-03T12:05:39.867Z,100723.56
2022-09-03T12:08:55.877Z,100719.88
2022-09-03T12:11:58.612Z,100731.47
2022-09-03T12:15:12.570Z,100732.81
2022-09-03T12:18:22.061Z,100732.16
2022-09-03T12:21:16.911Z,100735.97
2022-09-03T12:24:06.311Z,100754.13
2022-09-03T12:26:59.029Z,100740.69
2022-09-03T12:30:03.336Z,100736.66
2022-09-03T12:32:54.033Z,100733.28
2022-09-03T12:35:59.063Z,100740.00
2022-09-03T12:39:10.360Z,100748.75
2022-09-03T12:42:07.937Z,100747.06
2022-09-03T12:44:57.701Z,100757.81
2022-09-03T12:47:49.118Z,100768.88
2022-09-03T12:50:42.545Z,100762.50
2022-09-03T12:53:38.647Z,100761.50
2022-09-03T12:56:30.377Z,100757.13
2022-09-03T12:59:21.018Z,100756.97
2022-09-03T13:02:38.952Z,100764.19
2022-09-03T13:05:35.767Z,100766.53
2022-09-03T13:08:30.012Z,100772.75
2022-09-03T13:11:25.134Z,100766.19
2022-09-03T13:14:18.908Z,100767.22
2022-09-03T13:17:27.438Z,100771.56
2022-09-03T13:20:27.444Z,100771.41
2022-09-03T13:23:58.738Z,100766.19
2022-09-03T13:27:11.782Z,100760.16
2022-09-03T13:30:21.854Z,100763.69
2022-09-03T13:33:36.377Z,100768.72
2022-09-03T13:36:53.041Z,100775.13
2022-09-03T13:39:53.794Z,100775.28
2022-09-03T13:42:56.510Z,100773.25
2022-09-03T13:45:59.607Z,100780.66
2022-09-03T13:49:28.961Z,100784.00
2022-09-03T13:52:58.730Z,100788.38
2022-09-03T13:56:06.526Z,100784.66
2022-09-03T13:59:03.518Z,100780.31
2022-09-03T14:02:20.283Z,100775.28
2022-09-03T14:05:28.544Z,100779.31
2022-09-03T14:08:38.899Z,100776.28
2022-09-03T14:11:53.217Z,100774.59
2022-09-03T14:15:10.626Z,100797.44
2022-09-03T14:18:25.045Z,100799.78
2022-09-03T14:21:23.632Z,100786.69
2022-09-03T14:24:46.270Z,100790.72
2022-09-03T14:27:37.389Z,100776.63
2022-09-03T14:30:46.071Z,100781.84
2022-09-03T14:33:40.549Z,100779.63
2022-09-03T14:36:58.967Z,100786.03
2022-09-03T14:39:58.210Z,100789.72
2022-09-03T14:42:58.424Z,100797.44
2022-09-03T14:46:09.716Z,100803.16
2022-09-03T14:49:02.406Z,100793.06
2022-09-03T14:52:22.022Z,100794.06
2022-09-03T14:55:16.025Z,100781.31
2022-09-03T14:58:15.076Z,100774.13
2022-09-03T15:01:17.530Z,100765.88
2022-09-03T15:04:09.780Z,100762.84
2022-09-03T15:07:15.731Z,100753.78
2022-09-03T15:10:22.641Z,100746.72
2022-09-03T15:13:26.835Z,100750.44
2022-09-03T15:16:34.886Z,100749.75
2022-09-03T15:19:50.671Z,100730.94
2022-09-03T15:23:19.154Z,100726.59
2022-09-03T15:26:23.750Z,100710.47
2022-09-03T15:29:25.378Z,100698.72
2022-09-03T15:32:28.265Z,100694.53
2022-09-03T15:36:04.962Z,100682.47
2022-09-03T15:39:18.260Z,100683.94
2022-09-03T15:42:25.196Z,100685.63
2022-09-03T15:45:42.514Z,100676.25
2022-09-03T15:48:34.871Z,100665.84
2022-09-03T15:51:36.519Z,100671.06
2022-09-03T15:54:48.306Z,100662.47
2022-09-03T15:57:48.761Z,100660.81
2022-09-03T16:01:05.956Z,100655.59
2022-09-03T16:04:10.888Z,100642.84
2022-09-03T16:07:11.755Z,100636.31
2022-09-03T16:10:26.306Z,100630.25
2022-09-03T16:13:34.004Z,100627.41
2022-09-03T16:16:25.946Z,100621.19
2022-09-03T16:19:23.533Z,100626.22
2022-09-03T16:22:24.955Z,100619.16
2022-09-03T16:25:24.646Z,100620.84
2022-09-03T16:28:48.685Z,100618.81
2022-09-03T16:31:50.649Z,100618.81
2022-09-03T16:34:51.399Z,100608.75
2022-09-03T16:37:41.574Z,100604.06
2022-09-03T16:40:49.427Z,100598.69
2022-09-03T16:44:00.275Z,100606.75
2022-09-03T16:46:56.253Z,100599.69
2022-09-03T16:50:22.153Z,100596.84
2022-09-03T16:53:15.428Z,100592.31
2022-09-03T16:56:19.416Z,100581.22
2022-09-03T16:59:34.194Z,100593.84
2022-09-03T17:02:42.849Z,100583.59
2022-09-03T17:05:48.629Z,100578.56
2022-09-03T17:08:38.716Z,100585.94
2022-09-03T17:12:01.485Z,100573.53
2022-09-03T17:15:28.485Z,100571.84
2022-09-03T17:18:51.587Z,100564.78
2022-09-03T17:22:25.491Z,100574.03
2022-09-03T17:25:36.144Z,100581.91
2022-09-03T17:29:20.786Z,100582.09
2022-09-03T17:32:36.139Z,100578.22
2022-09-03T17:35:56.666Z,100580.91
2022-09-03T17:38:46.369Z,100571.53
2022-09-03T17:41:55.145Z,100574.19
2022-09-03T17:44:56.461Z,100573.19
2022-09-03T17:48:14.374Z,100576.88
2022-09-03T17:51:08.603Z,100582.59
2022-09-03T17:54:13.426Z,100580.75
2022-09-03T17:57:23.289Z,100576.75
2022-09-03T18:00:14.407Z,100581.25
2022-09-03T18:03:29.902Z,100580.09
2022-09-03T18:06:39.468Z,100573.19
2022-09-03T18:09:44.749Z,100575.22
2022-09-03T18:12:48.510Z,100573.53
2022-09-03T18:15:58.535Z,100577.06
2022-09-03T18:18:53.182Z,100577.91
2022-09-03T18:22:00.648Z,100580.59
2022-09-03T18:25:20.192Z,100580.59
2022-09-03T18:28:30.307Z,100585.63
2022-09-03T18:31:37.753Z,100586.28
2022-09-03T18:34:56.805Z,100579.75
2022-09-03T18:38:04.304Z,100580.91
2022-09-03T18:41:30.618Z,100578.22
2022-09-03T18:45:11.900Z,100574.38
2022-09-03T18:48:39.877Z,100578.09
2022-09-03T18:51:50.512Z,100574.72
2022-09-03T18:55:30.848Z,100573.88
2022-09-03T18:58:59.353Z,100576.75
2022-09-03T19:02:07.367Z,100568.50
2022-09-03T19:05:19.672Z,100565.53
2022-09-03T19:08:41.749Z,100567.19
2022-09-03T19:11:55.789Z,100567.53
2022-09-03T19:15:12.440Z,100570.91
2022-09-03T19:18:29.198Z,100567.53
2022-09-03T19:22:00.043Z,100567.53
2022-09-03T19:25:11.727Z,100569.56
2022-09-03T19:28:42.307Z,100571.91
2022-09-03T19:32:28.016Z,100587.00
2022-09-03T19:35:39.608Z,100587.69
2022-09-03T19:39:31.954Z,100578.63
2022-09-03T19:42:48.232Z,100591.38
2022-09-03T19:45:58.458Z,100593.03
2022-09-03T19:49:09.638Z,100597.41
2022-09-03T19:52:31.471Z,100600.09
2022-09-03T19:55:47.100Z,100600.44
2022-09-03T19:58:58.149Z,100605.47
2022-09-03T20:02:06.847Z,100604.78
2022-09-03T20:05:22.533Z,100589.69
2022-09-03T20:08:34.355Z,100606.28
2022-09-03T20:11:26.772Z,100596.75
2022-09-03T20:14:19.076Z,100605.78
2022-09-03T20:17:15.127Z,100593.03
2022-09-03T20:20:28.769Z,100596.06
2022-09-03T20:23:34.755Z,100607.13
2022-09-03T20:26:42.284Z,100602.94
2022-09-03T20:29:54.482Z,100600.91
2022-09-03T20:33:15.264Z,100602.25
2022-09-03T20:36:23.847Z,100605.47
2022-09-03T20:39:19.614Z,100588.00
2022-09-03T20:42:27.339Z,100578.63
2022-09-03T20:45:27.084Z,100582.66
2022-09-03T20:48:26.729Z,100581.78
2022-09-03T20:51:22.443Z,100585.81
2022-09-03T20:54:31.884Z,100578.44
2022-09-03T20:57:22.291Z,100584.16
2022-09-03T21:00:19.833Z,100584.66
2022-09-03T21:03:11.685Z,100589.69
2022-09-03T21:06:13.531Z,100592.19
2022-09-03T21:09:31.852Z,100602.94
2022-09-03T21:13:01.063Z,100607.47
2022-09-03T21:16:21.468Z,100618.53
2022-09-03T21:19:19.244Z,100621.72
2022-09-03T21:22:45.931Z,100620.22
2022-09-03T21:25:47.090Z,100620.22
2022-09-03T21:28:44.628Z,100620.56
2022-09-03T21:31:40.478Z,100622.22
2022-09-03T21:35:12.101Z,100621.22
2022-09-03T21:38:06.420Z,100626.25
2022-09-03T21:41:19.299Z,100616.53
2022-09-03T21:44:56.072Z,100611.50
2022-09-03T21:47:51.577Z,100613.84
2022-09-03T21:50:43.636Z,100607.47
2022-09-03T21:53:39.345Z,100615.53
2022-09-03T21:56:51.591Z,100620.56
2022-09-03T22:00:10.923Z,100612.66
2022-09-03T22:03:09.483Z,100620.88
2022-09-03T22:06:06.672Z,100621.38
2022-09-03T22:09:16.684Z,100619.69
2022-09-03T22:12:11.317Z,100608.47
2022-09-03T22:15:02.664Z,100614.53
2022-09-03T22:17:58.255Z,100654.09
2022-09-03T22:20:59.782Z,100654.09
2022-09-03T22:23:56.772Z,100639.16
2022-09-03T22:27:04.069Z,100647.53
2022-09-03T22:30:12.658Z,100661.47
2022-09-03T22:33:23.543Z,100670.19
2022-09-03T22:36:22.805Z,100658.81
2022-09-03T22:39:18.290Z,100651.91
2022-09-03T22:42:20.238Z,100648.72
2022-09-03T22:46:02.560Z,100649.06
2022-09-03T22:49:18.441Z,100655.78
2022-09-03T22:52:22.158Z,100660.13
2022-09-03T22:55:20.036Z,100659.81
2022-09-03T22:58:25.503Z,100654.78
2022-09-03T23:01:32.736Z,100665.16
2022-09-03T23:04:24.349Z,100668.34
2022-09-03T23:07:54.152Z,100669.19
2022-09-03T23:11:00.984Z,100676.56
2022-09-03T23:13:59.836Z,100680.25
2022-09-03T23:16:58.379Z,100677.41
2022-09-03T23:19:56.489Z,100688.97
2022-09-03T23:22:52.893Z,100690.66
2022-09-03T23:25:50.030Z,100694.34
2022-09-03T23:28:40.984Z,100698.53
2022-09-03T23:31:30.978Z,100695.38
2022-09-03T23:34:21.217Z,100702.41
2022-09-03T23:37:33.338Z,100702.09
2022-09-03T23:40:29.976Z,100704.44
2022-09-03T23:43:34.996Z,100707.94
2022-09-03T23:46:38.733Z,100710.09
2022-09-03T23:49:45.408Z,100706.78
2022-09-03T23:52:54.320Z,100719.19
2022-09-03T23:56:09.896Z,100720.19
2022-09-03T23:59:21.630Z,100714.31
